createdAt,value
2024-03-05T00:09:28.952Z,0.00
2024-03-05T00:19:29.577Z,0.00
2024-03-05T00:29:30.090Z,0.00
2024-03-05T00:39:30.717Z,0.00
2024-03-05T00:49:31.331Z,0.00
2024-03-05T00:59:31.887Z,0.00
2024-03-05T01:09:32.435Z,0.00
2024-03-05T01:19:33.068Z,0.00
2024-03-05T01:29:33.591Z,0.00
2024-03-05T01:39:34.201Z,0.00
2024-03-05T01:49:34.810Z,0.00
2024-03-05T01:59:35.338Z,0.00
2024-03-05T02:09:36.052Z,0.00
2024-03-05T02:19:36.711Z,0.00
2024-03-05T02:29:37.229Z,0.00
2024-03-05T02:39:37.790Z,0.00
2024-03-05T02:49:38.500Z,0.00
2024-03-05T02:59:39.050Z,0.00
2024-03-05T03:09:39.576Z,0.00
2024-03-05T03:19:40.178Z,0.00
2024-03-05T03:29:40.685Z,0.00
2024-03-05T03:39:41.251Z,0.00
2024-03-05T03:49:41.823Z,0.00
2024-03-05T03:59:42.357Z,0.00
2024-03-05T04:09:49.885Z,0.00
2024-03-05T04:19:43.455Z,0.00
2024-03-05T04:29:43.950Z,0.00
2024-03-05T04:39:45.457Z,0.00
2024-03-05T04:49:45.019Z,0.00
2024-03-05T04:59:45.611Z,0.00
2024-03-05T05:09:46.154Z,0.00
2024-03-05T05:19:46.760Z,1.00
2024-03-05T05:29:48.740Z,3.00
2024-03-05T05:39:47.748Z,1.00
2024-03-05T05:49:48.276Z,6.00
2024-03-05T05:59:48.772Z,16.00
2024-03-05T06:09:49.255Z,32.00
2024-03-05T06:19:49.846Z,53.00
2024-03-05T06:29:50.333Z,116.00
2024-03-05T06:39:50.835Z,193.00
2024-03-05T06:49:51.333Z,314.00
2024-03-05T06:59:51.859Z,414.00
2024-03-05T07:09:52.344Z,434.00
2024-03-05T07:19:52.921Z,680.00
2024-03-05T07:29:53.414Z,816.00
2024-03-05T07:39:54.076Z,916.00
2024-03-05T07:49:54.552Z,1286.00
2024-03-05T07:59:55.092Z,1628.00
2024-03-05T08:09:55.521Z,1639.00
2024-03-05T08:19:56.041Z,1781.00
2024-03-05T08:29:56.529Z,2718.00
2024-03-05T08:39:57.031Z,1870.00
2024-03-05T08:49:57.602Z,2626.00
2024-03-05T08:59:58.170Z,2894.00
2024-03-05T09:09:58.615Z,2982.00
2024-03-05T09:19:59.277Z,4298.00
2024-03-05T09:29:59.802Z,3810.00
2024-03-05T09:40:00.342Z,1699.00
2024-03-05T09:50:00.888Z,1981.00
2024-03-05T10:00:01.407Z,1046.00
2024-03-05T10:10:08.919Z,5894.00
2024-03-05T10:20:02.944Z,5361.00
2024-03-05T10:30:03.309Z,1283.00
2024-03-05T10:40:03.900Z,5314.00
2024-03-05T10:50:04.550Z,5511.00
2024-03-05T11:00:05.167Z,878.00
2024-03-05T11:10:05.760Z,5302.00
2024-03-05T11:20:06.499Z,1580.00
2024-03-05T11:30:07.034Z,1533.00
2024-03-05T11:40:09.501Z,1871.00
2024-03-05T11:50:08.343Z,679.00
2024-03-05T12:00:08.949Z,4680.00
2024-03-05T12:10:09.571Z,1344.00
2024-03-05T12:20:10.756Z,986.00
2024-03-05T12:30:10.688Z,850.00
2024-03-05T12:40:11.207Z,5090.00
2024-03-05T12:50:11.774Z,4569.00
2024-03-05T13:00:12.567Z,1463.00
2024-03-05T13:10:13.178Z,1080.00
2024-03-05T13:20:13.927Z,663.00
2024-03-05T13:30:15.956Z,4366.00
2024-03-05T13:40:15.648Z,2443.00
2024-03-05T13:50:16.103Z,4454.00
2024-03-05T14:00:16.516Z,2910.00
2024-03-05T14:10:17.322Z,1456.00
2024-03-05T14:20:17.554Z,486.00
2024-03-05T14:30:18.217Z,2514.00
2024-03-05T14:40:18.876Z,1152.00
2024-03-05T14:50:19.537Z,1119.00
2024-03-05T15:00:20.425Z,2345.00
2024-03-05T15:10:21.049Z,1862.00
2024-03-05T15:20:21.680Z,1740.00
2024-03-05T15:30:22.170Z,1431.00
2024-03-05T15:40:23.096Z,1207.00
2024-03-05T15:50:23.076Z,924.00
2024-03-05T16:00:23.685Z,750.00
2024-03-05T16:10:24.758Z,583.00
2024-03-05T16:20:25.156Z,441.00
2024-03-05T16:30:25.766Z,305.00
2024-03-05T16:40:26.494Z,194.00
2024-03-05T16:50:28.336Z,111.00
2024-03-05T17:00:27.603Z,53.00
2024-03-05T17:10:28.205Z,18.00
2024-03-05T17:20:28.700Z,4.00
2024-03-05T17:30:29.328Z,1.00
2024-03-05T17:40:29.959Z,0.00
2024-03-05T17:50:30.616Z,0.00
2024-03-05T18:00:31.641Z,0.00
2024-03-05T18:10:31.877Z,0.00
2024-03-05T18:20:32.580Z,0.00
2024-03-05T18:30:33.396Z,0.00
2024-03-05T18:40:34.499Z,0.00
2024-03-05T18:50:41.888Z,0.00
2024-03-05T19:00:35.130Z,0.00
2024-03-05T19:10:36.085Z,0.00
2024-03-05T19:20:36.965Z,0.00
2024-03-05T19:30:37.532Z,0.00
2024-03-05T19:40:38.247Z,0.00
2024-03-05T19:50:39.309Z,0.00
2024-03-05T20:00:39.584Z,0.00
2024-03-05T20:10:40.208Z,0.00
2024-03-05T20:20:41.059Z,0.00
2024-03-05T20:30:41.900Z,0.00
2024-03-05T20:40:42.458Z,0.00
2024-03-05T20:50:43.099Z,0.00
2024-03-05T21:00:43.844Z,0.00
2024-03-05T21:10:44.742Z,0.00
2024-03-05T21:20:45.215Z,0.00
2024-03-05T21:30:45.497Z,0.00
2024-03-05T21:40:46.157Z,0.00
2024-03-05T21:50:46.868Z,0.00
2024-03-05T22:00:47.521Z,0.00
2024-03-05T22:10:48.558Z,0.00
2024-03-05T22:20:49.045Z,0.00
2024-03-05T22:30:49.247Z,0.00
2024-03-05T22:40:49.930Z,0.00
2024-03-05T22:50:50.730Z,0.00
2024-03-05T23:00:58.358Z,0.00
2024-03-05T23:10:52.130Z,0.00
2024-03-05T23:20:52.723Z,0.00
2024-03-05T23:30:53.473Z,0.00
2024-03-05T23:40:55.970Z,0.00
2024-03-05T23:50:54.938Z,0.00
